createdAt,value
2018-10-19T00:00:08.854Z,101276.95
2018-10-19T00:02:36.367Z,101278.27
2018-10-19T00:05:04.191Z,101272.39
2018-10-19T00:07:31.671Z,101272.95
2018-10-19T00:09:59.114Z,101271.70
2018-10-19T00:12:26.540Z,101273.55
2018-10-19T00:14:53.962Z,101278.98
2018-10-19T00:17:21.431Z,101278.39
2018-10-19T00:19:49.023Z,101276.89
2018-10-19T00:22:16.558Z,101275.78
2018-10-19T00:24:43.937Z,101279.09
2018-10-19T00:27:11.517Z,101278.11
2018-10-19T00:29:38.875Z,101278.17
2018-10-19T00:32:06.353Z,101284.71
2018-10-19T00:34:33.903Z,101283.30
2018-10-19T00:37:01.567Z,101290.22
2018-10-19T00:39:29.064Z,101278.64
2018-10-19T00:41:56.845Z,101279.83
2018-10-19T00:44:24.301Z,101285.91
2018-10-19T00:46:51.702Z,101285.27
2018-10-19T00:49:19.110Z,101290.06
2018-10-19T00:51:46.490Z,101291.15
2018-10-19T00:54:13.917Z,101287.05
2018-10-19T00:56:41.356Z,101288.73
2018-10-19T00:59:08.968Z,101287.75
2018-10-19T01:01:36.384Z,101283.16
2018-10-19T01:04:04.168Z,101281.02
2018-10-19T01:06:31.710Z,101285.63
2018-10-19T01:08:59.268Z,101281.31
2018-10-19T01:11:26.656Z,101282.00
2018-10-19T01:13:54.120Z,101283.16
2018-10-19T01:16:21.558Z,101284.37
2018-10-19T01:18:49.015Z,101278.66
2018-10-19T01:21:16.434Z,101272.13
2018-10-19T01:23:43.832Z,101277.40
2018-10-19T01:26:11.376Z,101273.94
2018-10-19T01:28:38.782Z,101277.53
2018-10-19T01:31:06.213Z,101284.39
2018-10-19T01:33:33.642Z,101278.04
2018-10-19T01:36:01.078Z,101278.87
2018-10-19T01:38:28.503Z,101282.62
2018-10-19T01:40:55.983Z,101277.52
2018-10-19T01:43:23.438Z,101283.19
2018-10-19T01:45:56.324Z,101283.42
2018-10-19T01:48:24.402Z,101279.29
2018-10-19T01:50:51.843Z,101278.20
2018-10-19T01:53:19.299Z,101287.66
2018-10-19T01:55:46.851Z,101276.67
2018-10-19T01:58:14.715Z,101281.13
2018-10-19T02:00:42.142Z,101276.63
2018-10-19T02:03:09.519Z,101283.86
2018-10-19T02:05:37.598Z,101286.41
2018-10-19T02:08:05.844Z,101286.58
2018-10-19T02:10:33.258Z,101287.66
2018-10-19T02:13:00.691Z,101285.39
2018-10-19T02:15:28.301Z,101280.90
2018-10-19T02:17:56.009Z,101278.85
2018-10-19T02:20:23.403Z,101281.95
2018-10-19T02:22:50.815Z,101279.91
2018-10-19T02:25:18.253Z,101282.48
2018-10-19T02:27:45.657Z,101286.97
2018-10-19T02:30:13.562Z,101292.53
2018-10-19T02:32:41.139Z,101295.61
2018-10-19T02:35:08.660Z,101293.45
2018-10-19T02:37:36.140Z,101291.16
2018-10-19T02:40:04.028Z,101292.77
2018-10-19T02:42:31.423Z,101291.99
2018-10-19T02:44:58.918Z,101292.27
2018-10-19T02:47:26.365Z,101288.95
2018-10-19T02:49:53.812Z,101292.83
2018-10-19T02:52:21.371Z,101288.66
2018-10-19T02:54:48.739Z,101288.05
2018-10-19T02:57:16.188Z,101278.09
2018-10-19T02:59:43.558Z,101277.98
2018-10-19T03:02:10.964Z,101287.47
2018-10-19T03:04:38.365Z,101285.58
2018-10-19T03:07:06.335Z,101282.44
2018-10-19T03:09:33.828Z,101281.27
2018-10-19T03:12:01.236Z,101286.80
2018-10-19T03:14:28.830Z,101289.92
2018-10-19T03:16:56.227Z,101292.10
2018-10-19T03:19:23.626Z,101287.53
2018-10-19T03:21:51.137Z,101291.40
2018-10-19T03:24:18.645Z,101298.37
2018-10-19T03:26:46.213Z,101300.55
2018-10-19T03:29:13.776Z,101301.73
2018-10-19T03:31:41.178Z,101291.75
2018-10-19T03:34:08.551Z,101294.30
2018-10-19T03:36:36.036Z,101294.77
2018-10-19T03:39:05.198Z,101300.20
2018-10-19T03:41:32.529Z,101291.41
2018-10-19T03:44:00.049Z,101292.98
2018-10-19T03:46:27.534Z,101297.81
2018-10-19T03:48:55.165Z,101298.16
2018-10-19T03:51:22.671Z,101289.62
2018-10-19T03:53:50.046Z,101291.66
2018-10-19T03:56:17.693Z,101294.40
2018-10-19T03:58:45.137Z,101291.04
2018-10-19T04:01:12.717Z,101293.06
2018-10-19T04:03:40.190Z,101292.66
2018-10-19T04:06:07.629Z,101295.17
2018-10-19T04:08:35.150Z,101297.39
2018-10-19T04:11:02.631Z,101306.81
2018-10-19T04:13:30.094Z,101309.53
2018-10-19T04:15:57.535Z,101308.47
2018-10-19T04:18:24.946Z,101305.23
2018-10-19T04:20:52.415Z,101302.84
2018-10-19T04:23:19.834Z,101306.94
2018-10-19T04:25:47.313Z,101309.27
2018-10-19T04:28:15.158Z,101310.50
2018-10-19T04:30:42.643Z,101311.44
2018-10-19T04:33:10.098Z,101310.52
2018-10-19T04:35:37.556Z,101301.99
2018-10-19T04:38:04.949Z,101301.28
2018-10-19T04:40:32.353Z,101300.69
2018-10-19T04:42:59.875Z,101300.58
2018-10-19T04:45:27.467Z,101301.91
2018-10-19T04:47:54.866Z,101296.98
2018-10-19T04:50:22.338Z,101305.05
2018-10-19T04:52:49.809Z,101306.73
2018-10-19T04:55:19.359Z,101309.23
2018-10-19T04:57:46.896Z,101311.52
2018-10-19T05:00:15.917Z,101315.13
2018-10-19T05:02:44.303Z,101317.77
2018-10-19T05:05:11.879Z,101317.66
2018-10-19T05:07:39.222Z,101320.77
2018-10-19T05:10:07.566Z,101315.11
2018-10-19T05:12:35.062Z,101318.80
2018-10-19T05:15:02.678Z,101315.73
2018-10-19T05:17:30.429Z,101313.77
2018-10-19T05:19:57.918Z,101318.41
2018-10-19T05:22:25.341Z,101319.16
2018-10-19T05:24:52.750Z,101320.12
2018-10-19T05:27:20.336Z,101318.34
2018-10-19T05:29:47.854Z,101319.50
2018-10-19T05:32:15.334Z,101315.20
2018-10-19T05:34:42.788Z,101321.83
2018-10-19T05:37:10.286Z,101316.05
2018-10-19T05:39:37.735Z,101322.97
2018-10-19T05:42:05.875Z,101321.57
2018-10-19T05:44:33.347Z,101325.30
2018-10-19T05:47:00.835Z,101331.26
2018-10-19T05:49:28.287Z,101325.71
2018-10-19T05:51:55.851Z,101330.35
2018-10-19T05:54:23.331Z,101328.67
2018-10-19T05:56:50.882Z,101337.91
2018-10-19T05:59:18.406Z,101336.59
2018-10-19T06:01:45.815Z,101331.81
2018-10-19T06:04:13.246Z,101337.04
2018-10-19T06:06:40.664Z,101332.57
2018-10-19T06:09:09.607Z,101345.03
2018-10-19T06:11:37.356Z,101347.28
2018-10-19T06:14:05.418Z,101343.13
2018-10-19T06:16:32.804Z,101339.73
2018-10-19T06:19:00.282Z,101344.76
2018-10-19T06:21:27.838Z,101345.58
2018-10-19T06:23:55.272Z,101347.69
2018-10-19T06:26:23.695Z,101344.79
2018-10-19T06:28:51.138Z,101347.44
2018-10-19T06:31:18.567Z,101350.28
2018-10-19T06:33:46.111Z,101351.17
2018-10-19T06:36:13.511Z,101353.88
2018-10-19T06:38:40.912Z,101346.60
2018-10-19T06:41:08.609Z,101351.30
2018-10-19T06:43:35.967Z,101354.41
2018-10-19T06:46:03.532Z,101356.34
2018-10-19T06:48:31.214Z,101353.62
2018-10-19T06:50:58.652Z,101351.30
2018-10-19T06:53:26.071Z,101354.38
2018-10-19T06:55:53.606Z,101355.01
2018-10-19T06:58:21.024Z,101359.66
2018-10-19T07:00:48.498Z,101359.49
2018-10-19T07:03:15.921Z,101355.96
2018-10-19T07:05:43.354Z,101367.47
2018-10-19T07:08:10.747Z,101363.63
2018-10-19T07:10:38.197Z,101370.03
2018-10-19T07:13:05.621Z,101368.41
2018-10-19T07:15:33.037Z,101368.19
2018-10-19T07:18:00.496Z,101361.06
2018-10-19T07:20:27.898Z,101360.29
2018-10-19T07:22:55.279Z,101364.53
2018-10-19T07:25:22.742Z,101362.80
2018-10-19T07:27:50.149Z,101374.77
2018-10-19T07:30:17.600Z,101375.96
2018-10-19T07:32:45.074Z,101384.44
2018-10-19T07:35:12.595Z,101383.38
2018-10-19T07:37:39.987Z,101382.02
2018-10-19T07:40:07.631Z,101389.61
2018-10-19T07:42:35.107Z,101386.53
2018-10-19T07:45:02.594Z,101391.08
2018-10-19T07:47:30.057Z,101387.03
2018-10-19T07:49:57.526Z,101389.34
2018-10-19T07:52:24.944Z,101391.44
2018-10-19T07:54:52.566Z,101392.08
2018-10-19T07:57:19.990Z,101393.00
2018-10-19T07:59:47.399Z,101392.09
2018-10-19T08:02:15.014Z,101397.18
2018-10-19T08:04:42.446Z,101394.58
2018-10-19T08:07:09.921Z,101398.25
2018-10-19T08:09:37.366Z,101401.20
2018-10-19T08:12:04.831Z,101400.06
2018-10-19T08:14:32.222Z,101401.56
2018-10-19T08:16:59.678Z,101404.23
2018-10-19T08:19:27.184Z,101399.91
2018-10-19T08:21:54.660Z,101401.55
2018-10-19T08:24:22.118Z,101401.66
2018-10-19T08:26:49.669Z,101397.59
2018-10-19T08:29:17.262Z,101394.99
2018-10-19T08:31:44.883Z,101403.95
2018-10-19T08:34:12.265Z,101399.35
2018-10-19T08:36:39.694Z,101400.52
2018-10-19T08:39:07.554Z,101395.30
2018-10-19T08:41:35.356Z,101397.81
2018-10-19T08:44:02.959Z,101400.28
2018-10-19T08:46:38.170Z,101400.93
2018-10-19T08:49:07.980Z,101412.81
2018-10-19T08:51:35.446Z,101405.09
2018-10-19T08:54:02.978Z,101411.56
2018-10-19T08:56:30.626Z,101407.55
2018-10-19T08:58:58.111Z,101418.57
2018-10-19T09:01:26.117Z,101412.83
2018-10-19T09:03:53.602Z,101415.61
2018-10-19T09:06:21.091Z,101416.20
2018-10-19T09:08:48.566Z,101423.86
2018-10-19T09:11:16.344Z,101432.86
2018-10-19T09:13:43.854Z,101421.73
2018-10-19T09:16:11.356Z,101423.02
2018-10-19T09:18:38.773Z,101425.41
2018-10-19T09:21:06.388Z,101426.01
2018-10-19T09:23:34.005Z,101420.41
2018-10-19T09:26:01.430Z,101425.15
2018-10-19T09:28:28.921Z,101415.09
2018-10-19T09:30:56.402Z,101421.69
2018-10-19T09:33:23.786Z,101413.97
2018-10-19T09:35:51.271Z,101406.27
2018-10-19T09:38:18.795Z,101407.33
2018-10-19T09:40:46.251Z,101405.19
2018-10-19T09:43:13.741Z,101401.27
2018-10-19T09:45:41.250Z,101408.79
2018-10-19T09:48:08.765Z,101401.80
2018-10-19T09:50:36.194Z,101403.70
2018-10-19T09:53:03.738Z,101396.31
2018-10-19T09:55:31.378Z,101394.47
2018-10-19T09:57:58.922Z,101389.14
2018-10-19T10:00:58.407Z,101387.72
2018-10-19T10:03:26.397Z,101385.11
2018-10-19T10:05:53.941Z,101391.34
2018-10-19T10:08:22.085Z,101390.68
2018-10-19T10:10:49.469Z,101387.40
2018-10-19T10:13:16.909Z,101386.50
2018-10-19T10:15:44.405Z,101391.62
2018-10-19T10:18:11.744Z,101391.95
2018-10-19T10:20:39.191Z,101389.08
2018-10-19T10:23:06.828Z,101393.91
2018-10-19T10:25:34.329Z,101392.27
2018-10-19T10:28:01.847Z,101395.02
2018-10-19T10:30:29.279Z,101387.95
2018-10-19T10:32:56.677Z,101390.41
2018-10-19T10:35:24.093Z,101396.28
2018-10-19T10:37:51.658Z,101396.61
2018-10-19T10:40:19.127Z,101395.28
2018-10-19T10:42:46.473Z,101404.61
2018-10-19T10:45:13.902Z,101398.70
2018-10-19T10:47:41.287Z,101390.09
2018-10-19T10:50:08.863Z,101390.18
2018-10-19T10:52:36.361Z,101384.52
2018-10-19T10:55:04.038Z,101397.39
2018-10-19T10:57:31.405Z,101380.36
2018-10-19T10:59:58.993Z,101378.42
2018-10-19T11:02:26.349Z,101375.55
2018-10-19T11:04:53.761Z,101371.02
2018-10-19T11:07:21.375Z,101367.23
2018-10-19T11:09:48.647Z,101365.41
2018-10-19T11:12:16.099Z,101364.22
2018-10-19T11:14:43.546Z,101366.28
2018-10-19T11:17:11.111Z,101361.38
2018-10-19T11:19:38.553Z,101364.28
2018-10-19T11:22:06.277Z,101362.08
2018-10-19T11:24:33.640Z,101354.53
2018-10-19T11:27:01.044Z,101347.75
2018-10-19T11:29:28.475Z,101354.44
2018-10-19T11:31:55.883Z,101350.33
2018-10-19T11:34:23.323Z,101350.56
2018-10-19T11:36:50.930Z,101349.91
2018-10-19T11:39:18.334Z,101348.75
2018-10-19T11:41:45.711Z,101349.43
2018-10-19T11:44:13.214Z,101345.75
2018-10-19T11:46:40.617Z,101340.98
2018-10-19T11:49:08.129Z,101338.10
2018-10-19T11:51:35.570Z,101338.45
2018-10-19T11:54:02.967Z,101332.66
2018-10-19T11:56:30.378Z,101325.08
2018-10-19T11:58:57.831Z,101326.37
2018-10-19T12:01:25.265Z,101316.49
2018-10-19T12:03:52.643Z,101320.12
2018-10-19T12:06:20.127Z,101315.15
2018-10-19T12:08:47.507Z,101311.19
2018-10-19T12:11:15.012Z,101311.61
2018-10-19T12:13:42.505Z,101308.59
2018-10-19T12:16:09.942Z,101303.63
2018-10-19T12:18:37.467Z,101302.88
2018-10-19T12:21:05.312Z,101296.06
2018-10-19T12:23:32.679Z,101293.47
2018-10-19T12:26:00.119Z,101285.56
2018-10-19T12:28:27.539Z,101281.95
2018-10-19T12:30:54.935Z,101290.68
2018-10-19T12:33:22.303Z,101290.09
2018-10-19T12:35:49.755Z,101287.57
2018-10-19T12:38:17.236Z,101294.30
2018-10-19T12:40:44.642Z,101289.19
2018-10-19T12:43:12.162Z,101280.60
2018-10-19T12:46:49.747Z,101276.98
2018-10-19T12:49:18.827Z,101273.65
2018-10-19T12:51:46.516Z,101275.80
2018-10-19T12:54:13.961Z,101267.78
2018-10-19T12:56:41.453Z,101268.82
2018-10-19T12:59:08.914Z,101268.51
2018-10-19T13:01:36.450Z,101273.36
2018-10-19T13:04:04.242Z,101273.70
2018-10-19T13:06:31.721Z,101270.47
2018-10-19T13:08:59.244Z,101267.78
2018-10-19T13:11:26.929Z,101268.78
2018-10-19T13:13:54.436Z,101263.17
2018-10-19T13:16:22.220Z,101263.95
2018-10-19T13:18:49.901Z,101257.80
2018-10-19T13:21:17.342Z,101261.03
2018-10-19T13:23:44.799Z,101257.18
2018-10-19T13:26:12.341Z,101250.97
2018-10-19T13:28:39.821Z,101254.53
2018-10-19T13:31:07.282Z,101253.81
2018-10-19T13:33:34.710Z,101252.99
2018-10-19T13:36:02.347Z,101253.66
2018-10-19T13:38:29.740Z,101253.34
2018-10-19T13:40:57.210Z,101252.71
2018-10-19T13:43:24.841Z,101250.88
2018-10-19T13:45:52.707Z,101252.72
2018-10-19T13:48:20.783Z,101245.36
2018-10-19T13:50:48.226Z,101243.54
2018-10-19T13:53:16.027Z,101245.03
2018-10-19T13:55:43.535Z,101238.48
2018-10-19T13:58:10.985Z,101252.20
2018-10-19T14:00:38.498Z,101253.84
2018-10-19T14:03:05.969Z,101253.18
2018-10-19T14:05:33.424Z,101252.83
2018-10-19T14:08:00.792Z,101249.48
2018-10-19T14:10:28.405Z,101258.02
2018-10-19T14:12:55.886Z,101257.34
2018-10-19T14:15:23.517Z,101252.98
2018-10-19T14:17:51.038Z,101256.83
2018-10-19T14:20:18.456Z,101257.59
2018-10-19T14:22:45.969Z,101264.05
2018-10-19T14:25:13.824Z,101260.58
2018-10-19T14:27:42.354Z,101268.52
2018-10-19T14:30:12.057Z,101258.16
2018-10-19T14:32:40.305Z,101256.23
2018-10-19T14:35:08.314Z,101256.63
2018-10-19T14:37:36.990Z,101260.16
2018-10-19T14:40:05.645Z,101256.45
2018-10-19T14:42:33.703Z,101251.44
2018-10-19T14:45:01.119Z,101261.53
2018-10-19T14:47:28.559Z,101263.23
2018-10-19T14:49:55.949Z,101265.84
2018-10-19T14:52:23.361Z,101267.14
2018-10-19T14:54:50.863Z,101265.47
2018-10-19T14:57:18.500Z,101266.59
2018-10-19T14:59:45.883Z,101263.58
2018-10-19T15:02:13.336Z,101256.86
2018-10-19T15:04:40.737Z,101262.54
2018-10-19T15:07:08.321Z,101260.83
2018-10-19T15:09:35.834Z,101256.84
2018-10-19T15:12:03.257Z,101258.13
2018-10-19T15:14:30.654Z,101258.36
2018-10-19T15:16:58.116Z,101253.24
2018-10-19T15:19:25.516Z,101250.26
2018-10-19T15:21:52.960Z,101249.80
2018-10-19T15:24:20.379Z,101247.67
2018-10-19T15:26:47.789Z,101246.88
2018-10-19T15:29:15.261Z,101246.27
2018-10-19T15:31:42.687Z,101246.13
2018-10-19T15:34:10.137Z,101240.98
2018-10-19T15:36:37.794Z,101240.87
2018-10-19T15:39:07.873Z,101235.92
2018-10-19T15:41:35.236Z,101249.56
2018-10-19T15:44:02.757Z,101237.73
2018-10-19T15:46:30.289Z,101241.30
2018-10-19T15:48:57.673Z,101244.06
2018-10-19T15:51:25.531Z,101240.74
2018-10-19T15:53:53.219Z,101247.80
2018-10-19T15:56:21.520Z,101247.21
2018-10-19T15:58:50.115Z,101242.78
2018-10-19T16:01:17.781Z,101240.00
2018-10-19T16:03:45.437Z,101232.38
2018-10-19T16:06:13.972Z,101244.58
2018-10-19T16:08:41.535Z,101239.98
2018-10-19T16:11:09.312Z,101241.89
2018-10-19T16:13:36.839Z,101242.45
2018-10-19T16:16:04.704Z,101236.38
2018-10-19T16:18:32.697Z,101242.70
2018-10-19T16:21:00.196Z,101252.84
2018-10-19T16:23:27.655Z,101254.63
2018-10-19T16:25:55.136Z,101262.33
2018-10-19T16:28:22.597Z,101264.74
2018-10-19T16:30:50.091Z,101265.22
2018-10-19T16:33:17.523Z,101267.77
2018-10-19T16:35:45.030Z,101271.48
2018-10-19T16:38:12.516Z,101263.35
2018-10-19T16:40:40.085Z,101270.17
2018-10-19T16:43:07.635Z,101273.58
2018-10-19T16:45:35.109Z,101271.91
2018-10-19T16:48:02.667Z,101275.95
2018-10-19T16:50:30.117Z,101286.36
2018-10-19T16:52:57.577Z,101287.38
2018-10-19T16:55:25.108Z,101291.02
2018-10-19T16:57:52.532Z,101297.15
2018-10-19T17:00:20.206Z,101303.17
2018-10-19T17:02:47.779Z,101303.68
2018-10-19T17:05:15.353Z,101311.89
2018-10-19T17:07:42.778Z,101306.16
2018-10-19T17:10:10.224Z,101311.86
2018-10-19T17:12:37.611Z,101308.86
2018-10-19T17:15:05.631Z,101309.38
2018-10-19T17:17:33.115Z,101308.09
2018-10-19T17:20:00.561Z,101314.14
2018-10-19T17:22:28.026Z,101315.94
2018-10-19T17:24:55.478Z,101314.02
2018-10-19T17:27:22.976Z,101318.39
2018-10-19T17:29:50.646Z,101319.75
2018-10-19T17:32:18.163Z,101342.43
2018-10-19T17:34:45.566Z,101341.99
2018-10-19T17:37:13.093Z,101341.75
2018-10-19T17:39:40.566Z,101349.59
2018-10-19T17:42:08.138Z,101344.55
2018-10-19T17:44:35.590Z,101352.27
2018-10-19T17:47:03.066Z,101357.84
2018-10-19T17:49:30.510Z,101357.84
2018-10-19T17:51:58.000Z,101360.14
2018-10-19T17:54:25.508Z,101360.02
2018-10-19T17:56:52.876Z,101364.84
2018-10-19T17:59:20.387Z,101365.09
2018-10-19T18:01:47.898Z,101368.98
2018-10-19T18:04:15.308Z,101363.08
2018-10-19T18:06:43.006Z,101374.16
2018-10-19T18:09:11.566Z,101378.28
2018-10-19T18:11:39.507Z,101379.72
2018-10-19T18:14:07.029Z,101379.96
2018-10-19T18:16:35.077Z,101382.25
2018-10-19T18:19:02.492Z,101385.40
2018-10-19T18:21:30.049Z,101393.33
2018-10-19T18:23:57.442Z,101394.45
2018-10-19T18:26:25.079Z,101403.91
2018-10-19T18:28:52.686Z,101402.59
2018-10-19T18:31:20.490Z,101401.66
2018-10-19T18:33:47.960Z,101405.02
2018-10-19T18:36:15.448Z,101404.52
2018-10-19T18:38:42.924Z,101407.54
2018-10-19T18:41:10.530Z,101406.68
2018-10-19T18:43:37.996Z,101406.34
2018-10-19T18:46:05.574Z,101408.48
2018-10-19T18:48:33.070Z,101411.05
2018-10-19T18:51:00.522Z,101408.90
2018-10-19T18:53:28.034Z,101414.28
2018-10-19T18:55:55.710Z,101414.91
2018-10-19T18:58:23.218Z,101420.41
2018-10-19T19:00:50.721Z,101409.29
2018-10-19T19:03:18.188Z,101420.12
2018-10-19T19:05:45.723Z,101423.13
2018-10-19T19:08:13.459Z,101424.17
2018-10-19T19:10:40.862Z,101427.06
2018-10-19T19:13:14.143Z,101429.58
2018-10-19T19:15:41.671Z,101431.48
2018-10-19T19:18:09.165Z,101435.91
2018-10-19T19:20:36.639Z,101440.84
2018-10-19T19:23:04.301Z,101447.95
2018-10-19T19:25:37.442Z,101444.08
2018-10-19T19:28:05.043Z,101450.09
2018-10-19T19:30:32.466Z,101451.19
2018-10-19T19:33:05.505Z,101454.91
2018-10-19T19:35:32.947Z,101460.80
2018-10-19T19:38:00.398Z,101457.05
2018-10-19T19:40:27.904Z,101459.08
2018-10-19T19:42:57.062Z,101462.91
2018-10-19T19:45:24.603Z,101464.51
2018-10-19T19:47:57.549Z,101464.98
2018-10-19T19:50:25.158Z,101467.76
2018-10-19T19:52:52.634Z,101465.25
2018-10-19T19:55:20.164Z,101465.84
2018-10-19T19:57:47.598Z,101467.44
2018-10-19T20:00:15.191Z,101464.55
2018-10-19T20:02:42.645Z,101471.81
2018-10-19T20:05:10.127Z,101469.52
2018-10-19T20:07:37.572Z,101472.55
2018-10-19T20:10:06.174Z,101464.59
2018-10-19T20:12:33.641Z,101473.65
2018-10-19T20:15:01.061Z,101471.81
2018-10-19T20:17:28.508Z,101476.53
2018-10-19T20:19:55.977Z,101470.05
2018-10-19T20:22:23.516Z,101473.17
2018-10-19T20:24:51.162Z,101470.87
2018-10-19T20:27:18.584Z,101474.47
2018-10-19T20:29:46.064Z,101481.50
2018-10-19T20:32:13.897Z,101476.81
2018-10-19T20:34:41.359Z,101476.53
2018-10-19T20:37:09.023Z,101476.95
2018-10-19T20:39:37.370Z,101477.13
2018-10-19T20:42:05.339Z,101476.89
2018-10-19T20:44:32.747Z,101474.75
2018-10-19T20:47:00.409Z,101475.11
2018-10-19T20:49:27.769Z,101479.84
2018-10-19T20:51:55.235Z,101478.67
2018-10-19T20:54:22.885Z,101478.42
2018-10-19T20:56:50.319Z,101475.78
2018-10-19T20:59:17.823Z,101476.51
2018-10-19T21:01:45.445Z,101478.91
2018-10-19T21:04:12.860Z,101483.36
2018-10-19T21:06:40.379Z,101473.13
2018-10-19T21:09:09.057Z,101470.34
2018-10-19T21:11:36.981Z,101470.72
2018-10-19T21:14:05.126Z,101468.30
2018-10-19T21:16:32.641Z,101473.72
2018-10-19T21:19:00.102Z,101472.75
2018-10-19T21:21:27.585Z,101474.33
2018-10-19T21:23:55.015Z,101469.83
2018-10-19T21:26:22.513Z,101468.36
2018-10-19T21:28:50.009Z,101477.90
2018-10-19T21:31:17.595Z,101475.36
2018-10-19T21:33:45.038Z,101476.19
2018-10-19T21:36:12.606Z,101476.28
2018-10-19T21:38:40.387Z,101488.27
2018-10-19T21:41:07.958Z,101489.07
2018-10-19T21:43:35.337Z,101483.30
2018-10-19T21:46:02.809Z,101484.97
2018-10-19T21:48:30.303Z,101483.77
2018-10-19T21:50:57.727Z,101481.83
2018-10-19T21:53:25.321Z,101481.00
2018-10-19T21:55:52.837Z,101483.23
2018-10-19T21:58:20.511Z,101487.21
2018-10-19T22:00:48.225Z,101481.91
2018-10-19T22:03:15.745Z,101492.94
2018-10-19T22:05:43.175Z,101495.13
2018-10-19T22:08:10.646Z,101499.57
2018-10-19T22:10:38.103Z,101494.55
2018-10-19T22:13:05.700Z,101492.06
2018-10-19T22:15:33.152Z,101491.72
2018-10-19T22:18:00.529Z,101485.35
2018-10-19T22:20:27.929Z,101489.11
2018-10-19T22:22:55.432Z,101486.12
2018-10-19T22:25:22.807Z,101484.95
2018-10-19T22:27:50.237Z,101482.30
2018-10-19T22:30:17.803Z,101477.76
2018-10-19T22:32:45.186Z,101479.80
2018-10-19T22:35:12.650Z,101479.22
2018-10-19T22:37:40.073Z,101487.89
2018-10-19T22:40:07.608Z,101490.78
2018-10-19T22:42:35.147Z,101486.72
2018-10-19T22:45:02.653Z,101490.12
2018-10-19T22:47:30.073Z,101494.58
2018-10-19T22:49:57.437Z,101486.01
2018-10-19T22:52:24.870Z,101493.02
2018-10-19T22:54:52.874Z,101492.14
2018-10-19T22:57:20.351Z,101487.44
2018-10-19T22:59:47.803Z,101488.90
2018-10-19T23:02:15.439Z,101488.78
2018-10-19T23:04:42.870Z,101490.34
2018-10-19T23:07:10.457Z,101488.02
2018-10-19T23:09:37.822Z,101493.81
2018-10-19T23:12:05.255Z,101496.12
2018-10-19T23:14:32.781Z,101498.07
2018-10-19T23:17:00.355Z,101506.50
2018-10-19T23:19:27.963Z,101507.47
2018-10-19T23:21:55.554Z,101502.16
2018-10-19T23:24:23.269Z,101514.56
2018-10-19T23:26:50.874Z,101509.41
2018-10-19T23:29:18.687Z,101510.23
2018-10-19T23:31:46.235Z,101513.61
2018-10-19T23:34:13.989Z,101512.90
2018-10-19T23:36:41.488Z,101514.94
2018-10-19T23:39:10.574Z,101515.44
2018-10-19T23:41:38.351Z,101523.75
2018-10-19T23:44:05.759Z,101520.38
2018-10-19T23:46:33.324Z,101522.55
2018-10-19T23:49:00.893Z,101517.71
2018-10-19T23:51:28.341Z,101525.92
2018-10-19T23:53:55.748Z,101520.73
2018-10-19T23:56:23.281Z,101534.97
2018-10-19T23:58:50.980Z,101540.27
